createdAt,value
2022-12-11T00:01:27.433Z,101135.59
2022-12-11T00:03:53.969Z,101133.72
2022-12-11T00:06:22.544Z,101135.81
2022-12-11T00:08:53.474Z,101131.81
2022-12-11T00:11:21.407Z,101139.47
2022-12-11T00:13:47.994Z,101139.69
2022-12-11T00:16:14.732Z,101136.75
2022-12-11T00:18:41.432Z,101133.41
2022-12-11T00:21:11.044Z,101131.94
2022-12-11T00:23:38.094Z,101138.63
2022-12-11T00:26:14.133Z,101133.78
2022-12-11T00:28:40.948Z,101137.25
2022-12-11T00:31:18.230Z,101137.06
2022-12-11T00:33:45.812Z,101131.91
2022-12-11T00:36:14.524Z,101126.72
2022-12-11T00:38:41.261Z,101131.28
2022-12-11T00:41:07.615Z,101141.47
2022-12-11T00:43:34.189Z,101139.41
2022-12-11T00:46:00.619Z,101141.91
2022-12-11T00:48:27.060Z,101141.09
2022-12-11T00:50:53.621Z,101145.34
2022-12-11T00:53:20.508Z,101132.47
2022-12-11T00:55:46.915Z,101129.69
2022-12-11T00:58:13.523Z,101133.19
2022-12-11T01:00:41.071Z,101129.47
2022-12-11T01:03:07.826Z,101126.34
2022-12-11T01:05:34.561Z,101125.34
2022-12-11T01:08:00.956Z,101117.53
2022-12-11T01:10:27.456Z,101113.97
2022-12-11T01:12:55.492Z,101125.81
2022-12-11T01:15:23.576Z,101119.81
2022-12-11T01:17:51.022Z,101111.91
2022-12-11T01:20:18.251Z,101110.25
2022-12-11T01:22:44.778Z,101117.38
2022-12-11T01:25:11.734Z,101116.84
2022-12-11T01:27:39.131Z,101117.31
2022-12-11T01:30:07.992Z,101118.69
2022-12-11T01:32:35.094Z,101113.56
2022-12-11T01:35:07.253Z,101120.56
2022-12-11T01:37:34.798Z,101120.72
2022-12-11T01:40:01.699Z,101106.81
2022-12-11T01:42:29.466Z,101111.53
2022-12-11T01:45:53.215Z,101105.38
2022-12-11T01:48:42.096Z,101109.25
2022-12-11T01:51:08.908Z,101106.66
2022-12-11T01:53:40.253Z,101108.34
2022-12-11T01:56:08.611Z,101109.19
2022-12-11T01:58:40.081Z,101104.63
2022-12-11T02:01:06.483Z,101114.28
2022-12-11T02:03:33.119Z,101111.44
2022-12-11T02:06:01.226Z,101107.72
2022-12-11T02:08:27.859Z,101122.59
2022-12-11T02:11:10.778Z,101111.00
2022-12-11T02:14:04.487Z,101116.63
2022-12-11T02:16:50.628Z,101110.16
2022-12-11T02:19:42.466Z,101119.75
2022-12-11T02:22:14.161Z,101111.13
2022-12-11T02:25:03.573Z,101111.81
2022-12-11T02:27:44.638Z,101104.25
2022-12-11T02:30:14.028Z,101101.81
2022-12-11T02:32:56.214Z,101098.00
2022-12-11T02:35:37.478Z,101095.25
2022-12-11T02:38:17.882Z,101098.75
2022-12-11T02:40:47.348Z,101104.69
2022-12-11T02:43:16.990Z,101098.75
2022-12-11T02:45:45.178Z,101097.31
2022-12-11T02:48:12.965Z,101094.66
2022-12-11T02:50:51.295Z,101089.81
2022-12-11T02:53:22.037Z,101100.22
2022-12-11T02:55:54.266Z,101097.56
2022-12-11T02:58:45.835Z,101096.19
2022-12-11T03:01:12.371Z,101091.56
2022-12-11T03:03:38.854Z,101089.44
2022-12-11T03:06:05.413Z,101083.34
2022-12-11T03:08:32.330Z,101084.88
2022-12-11T03:10:58.747Z,101084.03
2022-12-11T03:13:25.319Z,101081.38
2022-12-11T03:16:12.290Z,101078.81
2022-12-11T03:19:12.585Z,101078.19
2022-12-11T03:21:56.725Z,101073.78
2022-12-11T03:24:33.618Z,101079.78
2022-12-11T03:27:10.978Z,101077.13
2022-12-11T03:29:42.917Z,101085.78
2022-12-11T03:32:13.175Z,101089.97
2022-12-11T03:34:44.560Z,101089.56
2022-12-11T03:37:13.880Z,101079.31
2022-12-11T03:39:46.198Z,101078.94
2022-12-11T03:42:14.951Z,101079.53
2022-12-11T03:44:42.637Z,101074.94
2022-12-11T03:47:10.490Z,101079.28
2022-12-11T03:49:42.054Z,101085.91
2022-12-11T03:52:11.235Z,101073.81
2022-12-11T03:54:39.472Z,101073.88
2022-12-11T03:57:08.203Z,101068.63
2022-12-11T03:59:38.108Z,101069.38
2022-12-11T04:02:10.911Z,101068.81
2022-12-11T04:04:42.033Z,101066.72
2022-12-11T04:07:09.311Z,101068.25
2022-12-11T04:09:36.038Z,101060.75
2022-12-11T04:12:02.415Z,101061.31
2022-12-11T04:14:47.589Z,101057.97
2022-12-11T04:17:33.900Z,101063.31
2022-12-11T04:20:18.789Z,101067.47
2022-12-11T04:23:03.733Z,101065.91
2022-12-11T04:25:30.105Z,101059.88
2022-12-11T04:27:56.477Z,101061.81
2022-12-11T04:30:30.745Z,101055.56
2022-12-11T04:33:00.262Z,101060.81
2022-12-11T04:35:26.591Z,101048.91
2022-12-11T04:37:52.946Z,101048.78
2022-12-11T04:40:20.341Z,101058.59
2022-12-11T04:42:46.998Z,101048.31
2022-12-11T04:45:13.794Z,101048.63
2022-12-11T04:47:40.916Z,101039.66
2022-12-11T04:50:09.407Z,101045.31
2022-12-11T04:52:36.437Z,101038.41
2022-12-11T04:55:05.334Z,101044.78
2022-12-11T04:57:31.710Z,101042.84
2022-12-11T04:59:58.131Z,101046.69
2022-12-11T05:02:26.601Z,101041.34
2022-12-11T05:04:53.073Z,101043.69
2022-12-11T05:07:19.493Z,101045.69
2022-12-11T05:09:45.907Z,101046.19
2022-12-11T05:12:12.470Z,101041.44
2022-12-11T05:14:38.900Z,101048.53
2022-12-11T05:17:05.214Z,101047.84
2022-12-11T05:19:34.024Z,101054.38
2022-12-11T05:22:01.412Z,101058.00
2022-12-11T05:24:27.834Z,101050.38
2022-12-11T05:26:54.350Z,101053.16
2022-12-11T05:29:20.760Z,101057.59
2022-12-11T05:31:47.156Z,101055.19
2022-12-11T05:34:15.107Z,101051.00
2022-12-11T05:36:41.550Z,101048.19
2022-12-11T05:39:07.910Z,101049.63
2022-12-11T05:41:34.304Z,101038.19
2022-12-11T05:44:00.712Z,101052.00
2022-12-11T05:46:29.469Z,101040.69
2022-12-11T05:48:57.204Z,101045.75
2022-12-11T05:51:24.323Z,101042.94
2022-12-11T05:53:52.887Z,101047.94
2022-12-11T05:56:21.925Z,101044.66
2022-12-11T05:58:49.017Z,101039.59
2022-12-11T06:01:21.494Z,101032.50
2022-12-11T06:03:48.575Z,101027.91
2022-12-11T06:06:15.502Z,101032.75
2022-12-11T06:08:42.097Z,101034.75
2022-12-11T06:11:09.051Z,101017.38
2022-12-11T06:13:35.895Z,101011.66
2022-12-11T06:16:03.983Z,101016.97
2022-12-11T06:18:30.766Z,101015.41
2022-12-11T06:20:57.197Z,101014.25
2022-12-11T06:23:23.664Z,101014.56
2022-12-11T06:25:50.028Z,101016.22
2022-12-11T06:28:16.553Z,101018.00
2022-12-11T06:30:43.006Z,101012.66
2022-12-11T06:33:09.428Z,101015.81
2022-12-11T06:35:41.639Z,101019.47
2022-12-11T06:38:10.758Z,101015.25
2022-12-11T06:40:37.423Z,101027.25
2022-12-11T06:43:03.779Z,101027.16
2022-12-11T06:45:30.830Z,101027.91
2022-12-11T06:47:58.324Z,101036.56
2022-12-11T06:50:24.699Z,101040.09
2022-12-11T06:52:51.104Z,101035.75
2022-12-11T06:55:17.857Z,101036.75
2022-12-11T06:57:44.858Z,101035.13
2022-12-11T07:00:11.876Z,101040.91
2022-12-11T07:02:39.017Z,101043.25
2022-12-11T07:05:05.931Z,101046.16
2022-12-11T07:07:32.382Z,101051.72
2022-12-11T07:10:04.233Z,101047.84
2022-12-11T07:12:34.183Z,101040.31
2022-12-11T07:15:01.132Z,101047.31
2022-12-11T07:17:29.567Z,101047.56
2022-12-11T07:19:56.066Z,101055.88
2022-12-11T07:22:22.512Z,101056.53
2022-12-11T07:24:48.861Z,101047.59
2022-12-11T07:27:15.165Z,101054.34
2022-12-11T07:29:41.528Z,101053.53
2022-12-11T07:32:07.935Z,101053.59
2022-12-11T07:34:34.434Z,101053.69
2022-12-11T07:37:00.774Z,101060.38
2022-12-11T07:39:27.228Z,101062.88
2022-12-11T07:41:53.589Z,101060.94
2022-12-11T07:44:19.938Z,101058.38
2022-12-11T07:46:46.454Z,101050.16
2022-12-11T07:49:12.855Z,101049.75
2022-12-11T07:51:39.357Z,101049.59
2022-12-11T07:54:10.705Z,101047.66
2022-12-11T07:56:37.370Z,101049.75
2022-12-11T07:59:05.480Z,101052.94
2022-12-11T08:01:35.764Z,101061.31
2022-12-11T08:04:06.858Z,101065.72
2022-12-11T08:06:38.846Z,101073.09
2022-12-11T08:09:08.155Z,101068.84
2022-12-11T08:11:35.016Z,101072.66
2022-12-11T08:14:02.346Z,101072.31
2022-12-11T08:16:29.393Z,101068.91
2022-12-11T08:18:55.958Z,101069.91
2022-12-11T08:21:24.579Z,101070.28
2022-12-11T08:23:55.890Z,101070.28
2022-12-11T08:26:29.230Z,101072.31
2022-12-11T08:28:56.397Z,101067.91
2022-12-11T08:31:23.587Z,101066.00
2022-12-11T08:33:51.459Z,101068.88
2022-12-11T08:36:20.777Z,101073.63
2022-12-11T08:38:48.455Z,101076.59
2022-12-11T08:41:26.639Z,101066.94
2022-12-11T08:43:55.005Z,101067.63
2022-12-11T08:46:23.909Z,101074.41
2022-12-11T08:48:50.607Z,101060.94
2022-12-11T08:51:20.869Z,101057.47
2022-12-11T08:53:47.232Z,101057.78
2022-12-11T08:56:19.159Z,101048.63
2022-12-11T08:58:46.616Z,101047.97
2022-12-11T09:01:26.302Z,101053.13
2022-12-11T09:03:54.208Z,101053.75
2022-12-11T09:06:23.429Z,101053.47
2022-12-11T09:08:52.899Z,101048.50
2022-12-11T09:11:22.900Z,101050.50
2022-12-11T09:13:49.916Z,101044.44
2022-12-11T09:16:18.662Z,101042.41
2022-12-11T09:18:46.139Z,101044.53
2022-12-11T09:21:14.123Z,101050.50
2022-12-11T09:23:40.879Z,101046.28
2022-12-11T09:26:10.988Z,101044.78
2022-12-11T09:28:42.702Z,101044.84
2022-12-11T09:31:23.350Z,101045.34
2022-12-11T09:33:52.042Z,101048.13
2022-12-11T09:36:19.042Z,101042.19
2022-12-11T09:38:45.739Z,101043.44
2022-12-11T09:41:20.855Z,101043.50
2022-12-11T09:44:02.749Z,101050.28
2022-12-11T09:46:34.197Z,101049.28
2022-12-11T09:49:02.540Z,101050.94
2022-12-11T09:51:42.471Z,101045.59
2022-12-11T09:54:13.247Z,101042.28
2022-12-11T09:56:44.761Z,101048.19
2022-12-11T09:59:28.176Z,101039.41
2022-12-11T10:02:14.424Z,101034.09
2022-12-11T10:04:59.111Z,101036.00
2022-12-11T10:07:40.825Z,101031.75
2022-12-11T10:10:35.765Z,101035.41
2022-12-11T10:13:16.578Z,101024.50
2022-12-11T10:16:00.072Z,101027.91
2022-12-11T10:18:28.985Z,101024.50
2022-12-11T10:20:56.589Z,101027.56
2022-12-11T10:23:35.596Z,101031.91
2022-12-11T10:26:14.603Z,101029.25
2022-12-11T10:28:41.138Z,101032.84
2022-12-11T10:31:13.881Z,101022.56
2022-12-11T10:33:58.490Z,101020.66
2022-12-11T10:36:34.198Z,101022.47
2022-12-11T10:39:01.501Z,101014.44
2022-12-11T10:41:49.659Z,101013.84
2022-12-11T10:44:21.325Z,101014.91
2022-12-11T10:47:09.045Z,101010.38
2022-12-11T10:49:37.634Z,101014.00
2022-12-11T10:52:22.048Z,101010.81
2022-12-11T10:54:56.312Z,101012.25
2022-12-11T10:57:29.290Z,101008.66
2022-12-11T10:59:56.055Z,101008.91
2022-12-11T11:02:31.815Z,101007.50
2022-12-11T11:05:00.655Z,101008.16
2022-12-11T11:07:28.570Z,101003.28
2022-12-11T11:10:17.347Z,101010.94
2022-12-11T11:12:47.458Z,101000.81
2022-12-11T11:15:30.619Z,101000.03
2022-12-11T11:18:03.853Z,100995.66
2022-12-11T11:20:31.485Z,101000.09
2022-12-11T11:23:04.213Z,100994.81
2022-12-11T11:25:33.704Z,100997.50
2022-12-11T11:28:02.442Z,100996.75
2022-12-11T11:30:30.741Z,100996.59
2022-12-11T11:33:02.254Z,100990.75
2022-12-11T11:35:30.837Z,100988.72
2022-12-11T11:38:09.544Z,100983.09
2022-12-11T11:40:58.127Z,100996.41
2022-12-11T11:43:43.513Z,100993.56
2022-12-11T11:46:36.588Z,100990.75
2022-12-11T11:49:27.008Z,100980.66
2022-12-11T11:52:25.775Z,100979.06
2022-12-11T11:55:17.289Z,100977.41
2022-12-11T11:57:56.541Z,100974.41
2022-12-11T12:00:28.811Z,100970.56
2022-12-11T12:03:03.365Z,100967.22
2022-12-11T12:05:43.414Z,100968.00
2022-12-11T12:08:15.994Z,100974.41
2022-12-11T12:10:50.331Z,100976.09
2022-12-11T12:13:49.040Z,100967.41
2022-12-11T12:16:52.105Z,100968.16
2022-12-11T12:19:51.681Z,100964.56
2022-12-11T12:22:43.836Z,100960.28
2022-12-11T12:25:25.657Z,100961.41
2022-12-11T12:28:11.865Z,100963.50
2022-12-11T12:31:10.522Z,100963.16
2022-12-11T12:33:55.804Z,100958.50
2022-12-11T12:37:02.642Z,100959.97
2022-12-11T12:40:02.728Z,100960.09
2022-12-11T12:42:47.770Z,100959.47
2022-12-11T12:45:21.086Z,100957.81
2022-12-11T12:47:53.246Z,100953.78
2022-12-11T12:50:23.071Z,100955.44
2022-12-11T12:52:52.118Z,100955.28
2022-12-11T12:55:24.485Z,100960.59
2022-12-11T12:58:00.496Z,100959.66
2022-12-11T13:00:41.121Z,100960.41
2022-12-11T13:03:29.718Z,100955.44
2022-12-11T13:06:04.104Z,100957.84
2022-12-11T13:08:36.562Z,100958.97
2022-12-11T13:11:07.337Z,100957.81
2022-12-11T13:13:38.498Z,100953.94
2022-12-11T13:16:15.166Z,100955.88
2022-12-11T13:18:47.620Z,100956.38
2022-12-11T13:21:33.299Z,100953.03
2022-12-11T13:24:21.292Z,100956.53
2022-12-11T13:26:49.506Z,100955.78
2022-12-11T13:29:34.952Z,100949.34
2022-12-11T13:32:10.275Z,100948.59
2022-12-11T13:34:39.980Z,100952.09
2022-12-11T13:37:21.479Z,100959.19
2022-12-11T13:39:47.896Z,100962.72
2022-12-11T13:42:27.925Z,100963.63
2022-12-11T13:44:54.535Z,100965.22
2022-12-11T13:47:21.290Z,100969.03
2022-12-11T13:49:51.852Z,100969.06
2022-12-11T13:52:21.783Z,100972.75
2022-12-11T13:54:51.214Z,100976.19
2022-12-11T13:57:22.139Z,100979.53
2022-12-11T13:59:54.207Z,100974.34
2022-12-11T14:02:30.014Z,100973.03
2022-12-11T14:05:00.864Z,100986.13
2022-12-11T14:07:31.777Z,100973.47
2022-12-11T14:10:06.580Z,100970.44
2022-12-11T14:12:33.006Z,100974.56
2022-12-11T14:15:02.767Z,100974.41
2022-12-11T14:17:32.127Z,100973.75
2022-12-11T14:20:01.529Z,100971.69
2022-12-11T14:22:29.711Z,100975.69
2022-12-11T14:24:58.816Z,100973.78
2022-12-11T14:27:26.438Z,100972.44
2022-12-11T14:29:52.961Z,100970.59
2022-12-11T14:32:29.993Z,100971.31
2022-12-11T14:34:57.046Z,100970.81
2022-12-11T14:37:25.461Z,100975.25
2022-12-11T14:40:01.093Z,100969.19
2022-12-11T14:42:33.799Z,100973.25
2022-12-11T14:45:13.016Z,100978.94
2022-12-11T14:47:43.246Z,100973.81
2022-12-11T14:50:16.806Z,100974.66
2022-12-11T14:52:48.304Z,100975.22
2022-12-11T14:55:30.686Z,100981.22
2022-12-11T14:58:00.515Z,100981.31
2022-12-11T15:00:30.299Z,100980.56
2022-12-11T15:02:59.540Z,100976.41
2022-12-11T15:05:26.003Z,100981.75
2022-12-11T15:08:12.612Z,100981.75
2022-12-11T15:11:02.010Z,100977.81
2022-12-11T15:13:28.684Z,100986.91
2022-12-11T15:15:56.258Z,100989.94
2022-12-11T15:18:27.111Z,100980.84
2022-12-11T15:20:57.521Z,100981.56
2022-12-11T15:23:23.956Z,100988.44
2022-12-11T15:26:01.956Z,100995.97
2022-12-11T15:28:37.154Z,100993.63
2022-12-11T15:31:23.186Z,100990.97
2022-12-11T15:33:49.566Z,100989.03
2022-12-11T15:36:25.454Z,100997.38
2022-12-11T15:38:51.812Z,101000.81
2022-12-11T15:41:26.120Z,101004.31
2022-12-11T15:43:58.839Z,100997.88
2022-12-11T15:46:26.072Z,100993.47
2022-12-11T15:48:52.518Z,101004.38
2022-12-11T15:51:19.074Z,101009.41
2022-12-11T15:53:45.524Z,101010.88
2022-12-11T15:56:16.148Z,101004.63
2022-12-11T15:58:47.019Z,101008.28
2022-12-11T16:01:13.358Z,101012.03
2022-12-11T16:03:39.778Z,101011.28
2022-12-11T16:06:06.370Z,101013.47
2022-12-11T16:08:32.822Z,101012.66
2022-12-11T16:10:59.286Z,101009.78
2022-12-11T16:13:25.628Z,101009.13
2022-12-11T16:15:53.589Z,101003.94
2022-12-11T16:18:22.952Z,101004.47
2022-12-11T16:20:50.690Z,101004.94
2022-12-11T16:23:18.306Z,101002.28
2022-12-11T16:25:45.780Z,100997.94
2022-12-11T16:28:14.677Z,100993.25
2022-12-11T16:30:43.489Z,100993.41
2022-12-11T16:33:13.280Z,100995.94
2022-12-11T16:35:41.368Z,100988.09
2022-12-11T16:38:08.131Z,100980.88
2022-12-11T16:40:34.546Z,100985.31
2022-12-11T16:43:00.962Z,100983.72
2022-12-11T16:45:27.399Z,100983.88
2022-12-11T16:47:54.704Z,100982.16
2022-12-11T16:50:21.224Z,100983.34
2022-12-11T16:52:47.903Z,100987.03
2022-12-11T16:55:15.518Z,100996.28
2022-12-11T16:57:42.169Z,100989.41
2022-12-11T17:00:12.035Z,101002.63
2022-12-11T17:02:38.560Z,100996.94
2022-12-11T17:05:05.294Z,100994.47
2022-12-11T17:07:32.733Z,100997.59
2022-12-11T17:10:00.589Z,100991.69
2022-12-11T17:12:27.882Z,100992.88
2022-12-11T17:14:55.565Z,100996.03
2022-12-11T17:17:22.013Z,100993.78
2022-12-11T17:19:49.243Z,101000.88
2022-12-11T17:22:15.614Z,101009.00
2022-12-11T17:24:41.990Z,101003.63
2022-12-11T17:27:08.395Z,101007.06
2022-12-11T17:29:34.847Z,101001.91
2022-12-11T17:32:03.062Z,101002.25
2022-12-11T17:34:34.576Z,101003.56
2022-12-11T17:37:04.394Z,101005.31
2022-12-11T17:39:30.865Z,101006.53
2022-12-11T17:41:57.229Z,101008.97
2022-12-11T17:44:24.211Z,101011.28
2022-12-11T17:46:50.669Z,101003.06
2022-12-11T17:49:17.051Z,101000.06
2022-12-11T17:51:43.396Z,100995.97
2022-12-11T17:54:09.794Z,101006.66
2022-12-11T17:56:36.785Z,101004.38
2022-12-11T17:59:03.587Z,101003.22
2022-12-11T18:01:30.337Z,101001.28
2022-12-11T18:04:00.065Z,101005.38
2022-12-11T18:06:26.643Z,101000.13
2022-12-11T18:08:53.069Z,100989.13
2022-12-11T18:11:23.405Z,101000.88
2022-12-11T18:13:51.892Z,100999.94
2022-12-11T18:16:22.207Z,101005.47
2022-12-11T18:18:50.186Z,101007.06
2022-12-11T18:21:20.532Z,101010.22
2022-12-11T18:23:47.387Z,101007.97
2022-12-11T18:26:14.508Z,101013.22
2022-12-11T18:28:42.040Z,101007.06
2022-12-11T18:31:09.628Z,101012.25
2022-12-11T18:33:38.345Z,101013.56
2022-12-11T18:36:05.761Z,101011.22
2022-12-11T18:38:32.262Z,101015.25
2022-12-11T18:40:58.686Z,101010.72
2022-12-11T18:43:25.222Z,101013.56
2022-12-11T18:45:51.878Z,101010.50
2022-12-11T18:48:18.292Z,101005.06
2022-12-11T18:50:49.024Z,101005.13
2022-12-11T18:53:16.049Z,101005.38
2022-12-11T18:55:44.179Z,101009.53
2022-12-11T18:58:11.899Z,101010.41
2022-12-11T19:00:40.273Z,101009.41
2022-12-11T19:03:07.730Z,101009.47
2022-12-11T19:05:35.393Z,101001.56
2022-12-11T19:08:03.332Z,101005.06
2022-12-11T19:10:29.746Z,101004.81
2022-12-11T19:12:56.081Z,100995.97
2022-12-11T19:15:24.122Z,101002.13
2022-12-11T19:17:50.780Z,100996.06
2022-12-11T19:20:48.495Z,101003.81
2022-12-11T19:23:04.326Z,101004.81
2022-12-11T19:25:30.696Z,101011.91
2022-12-11T19:27:57.043Z,101015.25
2022-12-11T19:30:24.258Z,101018.25
2022-12-11T19:32:51.062Z,101004.97
2022-12-11T19:35:18.213Z,101007.28
2022-12-11T19:37:44.877Z,101011.81
2022-12-11T19:40:11.463Z,101017.97
2022-12-11T19:42:37.847Z,101015.97
2022-12-11T19:45:04.606Z,101008.88
2022-12-11T19:47:30.981Z,101014.16
2022-12-11T19:49:57.368Z,101013.13
2022-12-11T19:52:23.832Z,101012.22
2022-12-11T19:54:50.470Z,101016.38
2022-12-11T19:57:16.847Z,101018.91
2022-12-11T19:59:43.153Z,101009.44
2022-12-11T20:02:11.693Z,101021.22
2022-12-11T20:04:38.134Z,101019.72
2022-12-11T20:07:04.539Z,101017.72
2022-12-11T20:09:30.966Z,101021.22
2022-12-11T20:11:57.331Z,101026.31
2022-12-11T20:14:25.800Z,101027.13
2022-12-11T20:17:10.547Z,101021.22
2022-12-11T20:19:39.524Z,101015.78
2022-12-11T20:22:05.970Z,101027.88
2022-12-11T20:24:32.384Z,101019.22
2022-12-11T20:26:58.740Z,101033.06
2022-12-11T20:29:25.341Z,101025.47
2022-12-11T20:31:51.936Z,101035.63
2022-12-11T20:34:18.874Z,101034.66
2022-12-11T20:36:47.468Z,101024.53
2022-12-11T20:39:15.123Z,101024.91
2022-12-11T20:41:41.684Z,101024.72
2022-12-11T20:44:08.027Z,101025.47
2022-12-11T20:46:35.379Z,101020.03
2022-12-11T20:49:01.784Z,101019.28
2022-12-11T20:51:28.951Z,101019.38
2022-12-11T20:53:59.679Z,101013.38
2022-12-11T20:56:29.443Z,101016.44
2022-12-11T20:58:56.634Z,101017.53
2022-12-11T21:01:25.609Z,101019.13
2022-12-11T21:03:53.379Z,101023.63
2022-12-11T21:06:25.757Z,101025.88
2022-12-11T21:08:53.098Z,101024.38
2022-12-11T21:11:20.380Z,101018.28
2022-12-11T21:13:46.767Z,101013.28
2022-12-11T21:16:13.335Z,101017.63
2022-12-11T21:18:41.404Z,101018.47
2022-12-11T21:21:07.852Z,101017.44
2022-12-11T21:23:34.484Z,101017.38
2022-12-11T21:26:00.899Z,101023.44
2022-12-11T21:28:33.538Z,101020.88
2022-12-11T21:31:04.232Z,101017.88
2022-12-11T21:33:30.684Z,101018.97
2022-12-11T21:35:57.910Z,101010.88
2022-12-11T21:38:25.028Z,101012.53
2022-12-11T21:40:52.657Z,101015.06
2022-12-11T21:43:19.250Z,101018.06
2022-12-11T21:46:00.999Z,101020.81
2022-12-11T21:48:28.667Z,101025.91
2022-12-11T21:50:55.018Z,101020.16
2022-12-11T21:53:21.428Z,101024.56
2022-12-11T21:55:47.769Z,101020.88
2022-12-11T21:58:14.190Z,101024.91
2022-12-11T22:00:40.747Z,101027.41
2022-12-11T22:03:07.250Z,101027.31
2022-12-11T22:05:33.589Z,101029.16
2022-12-11T22:08:00.855Z,101030.81
2022-12-11T22:10:28.667Z,101029.63
2022-12-11T22:12:55.088Z,101032.22
2022-12-11T22:15:21.536Z,101040.50
2022-12-11T22:17:47.954Z,101041.44
2022-12-11T22:20:14.545Z,101060.44
2022-12-11T22:22:40.998Z,101040.91
2022-12-11T22:25:07.846Z,101048.44
2022-12-11T22:27:34.520Z,101048.69
2022-12-11T22:30:00.913Z,101047.53
2022-12-11T22:32:27.739Z,101055.47
2022-12-11T22:34:56.238Z,101053.78
2022-12-11T22:37:22.704Z,101061.63
2022-12-11T22:39:49.107Z,101058.34
2022-12-11T22:42:15.654Z,101065.69
2022-12-11T22:44:42.180Z,101059.38
2022-12-11T22:47:08.519Z,101054.44
2022-12-11T22:49:35.995Z,101043.91
2022-12-11T22:52:02.580Z,101048.53
2022-12-11T22:54:29.125Z,101052.34
2022-12-11T22:56:55.676Z,101052.69
2022-12-11T22:59:23.141Z,101053.03
2022-12-11T23:01:49.741Z,101048.19
2022-12-11T23:04:16.114Z,101056.69
2022-12-11T23:06:42.449Z,101056.63
2022-12-11T23:09:09.076Z,101059.03
2022-12-11T23:11:37.466Z,101056.22
2022-12-11T23:14:07.498Z,101055.94
2022-12-11T23:16:33.970Z,101061.28
2022-12-11T23:19:00.934Z,101053.44
2022-12-11T23:21:28.746Z,101058.69
2022-12-11T23:23:56.322Z,101056.69
2022-12-11T23:26:23.177Z,101064.19
2022-12-11T23:28:49.619Z,101060.03
2022-12-11T23:31:16.560Z,101047.59
2022-12-11T23:33:42.934Z,101059.53
2022-12-11T23:36:09.570Z,101059.88
2022-12-11T23:38:36.336Z,101064.72
2022-12-11T23:41:04.074Z,101057.53
2022-12-11T23:43:30.945Z,101054.03
2022-12-11T23:45:57.777Z,101061.78
2022-12-11T23:48:24.392Z,101054.84
2022-12-11T23:50:50.722Z,101054.84
2022-12-11T23:53:17.138Z,101054.59
2022-12-11T23:55:45.339Z,101043.81
2022-12-11T23:58:12.666Z,101046.25
